createdAt,value
2022-11-10T00:02:45.576Z,63.93
2022-11-10T00:05:32.378Z,64.35
2022-11-10T00:08:18.659Z,63.26
2022-11-10T00:11:07.377Z,63.21
2022-11-10T00:14:16.919Z,64.73
2022-11-10T00:20:12.530Z,63.80
2022-11-10T00:22:59.038Z,63.17
2022-11-10T00:25:45.243Z,62.72
2022-11-10T00:28:33.436Z,64.64
2022-11-10T00:31:19.824Z,63.55
2022-11-10T00:34:06.014Z,64.54
2022-11-10T00:36:52.230Z,63.44
2022-11-10T00:39:38.464Z,63.21
2022-11-10T00:42:24.549Z,63.67
2022-11-10T00:45:12.761Z,63.52
2022-11-10T00:47:58.911Z,63.56
2022-11-10T00:50:45.098Z,63.54
2022-11-10T00:53:31.402Z,63.13
2022-11-10T00:56:18.012Z,63.49
2022-11-10T00:59:04.538Z,62.57
2022-11-10T01:01:52.158Z,62.58
2022-11-10T01:04:38.314Z,62.19
2022-11-10T01:07:24.614Z,62.80
2022-11-10T01:10:11.176Z,62.43
2022-11-10T01:12:57.559Z,61.82
2022-11-10T01:15:44.070Z,62.50
2022-11-10T01:18:31.899Z,62.35
2022-11-10T01:21:18.236Z,61.14
2022-11-10T01:24:04.818Z,61.88
2022-11-10T01:26:51.377Z,62.42
2022-11-10T01:29:37.624Z,62.39
2022-11-10T01:32:23.948Z,62.01
2022-11-10T01:35:12.516Z,61.97
2022-11-10T01:37:58.708Z,62.11
2022-11-10T01:40:45.560Z,61.81
2022-11-10T01:43:32.291Z,62.41
2022-11-10T01:46:18.452Z,62.41
2022-11-10T01:49:05.571Z,62.42
2022-11-10T02:08:45.299Z,62.41
2022-11-10T02:11:33.056Z,63.77
2022-11-10T02:14:19.448Z,63.70
2022-11-10T02:17:05.869Z,62.99
2022-11-10T02:19:53.068Z,63.59
2022-11-10T02:22:40.965Z,63.74
2022-11-10T02:25:33.528Z,63.73
2022-11-10T02:28:19.807Z,64.11
2022-11-10T02:31:07.787Z,63.60
2022-11-10T02:33:55.292Z,63.74
2022-11-10T02:36:42.044Z,63.44
2022-11-10T02:39:29.907Z,63.20
2022-11-10T02:42:16.583Z,63.41
2022-11-10T02:45:02.985Z,62.94
2022-11-10T02:47:49.507Z,62.47
2022-11-10T02:50:35.899Z,63.15
2022-11-10T02:53:22.859Z,63.18
2022-11-10T02:56:11.296Z,62.36
2022-11-10T02:58:57.661Z,62.73
2022-11-10T03:01:43.829Z,62.64
2022-11-10T03:04:30.347Z,62.33
2022-11-10T03:07:16.961Z,62.95
2022-11-10T03:10:04.232Z,62.66
2022-11-10T03:12:55.348Z,62.39
2022-11-10T03:15:41.587Z,62.52
2022-11-10T03:18:27.818Z,62.67
2022-11-10T03:21:15.708Z,63.34
2022-11-10T03:24:02.469Z,63.13
2022-11-10T03:26:49.251Z,63.55
2022-11-10T03:29:37.074Z,63.56
2022-11-10T03:32:23.434Z,63.35
2022-11-10T03:35:10.856Z,63.88
2022-11-10T03:37:57.411Z,63.91
2022-11-10T03:41:12.515Z,63.36
2022-11-10T03:43:50.816Z,63.38
2022-11-10T03:46:42.732Z,63.13
2022-11-10T03:49:30.425Z,63.82
2022-11-10T03:52:16.741Z,64.04
2022-11-10T03:55:03.815Z,63.82
2022-11-10T03:57:50.084Z,64.80
2022-11-10T04:00:36.424Z,63.59
2022-11-10T04:03:24.852Z,64.29
2022-11-10T04:06:30.047Z,64.96
2022-11-10T04:09:16.532Z,64.44
2022-11-10T04:12:24.667Z,64.48
2022-11-10T04:15:29.925Z,64.29
2022-11-10T04:18:24.592Z,65.04
2022-11-10T04:21:13.070Z,65.00
2022-11-10T04:23:59.954Z,64.59
2022-11-10T04:26:47.531Z,64.64
2022-11-10T04:29:33.832Z,65.70
2022-11-10T04:32:20.227Z,65.23
2022-11-10T04:35:06.903Z,65.19
2022-11-10T04:37:54.674Z,64.69
2022-11-10T04:40:40.833Z,64.97
2022-11-10T04:43:27.122Z,65.66
2022-11-10T04:46:25.212Z,65.90
2022-11-10T04:49:12.097Z,66.36
2022-11-10T04:51:58.559Z,65.42
2022-11-10T04:54:46.678Z,65.38
2022-11-10T04:57:33.009Z,65.73
2022-11-10T05:00:20.067Z,66.20
2022-11-10T05:03:10.173Z,66.15
2022-11-10T05:05:56.761Z,66.23
2022-11-10T05:08:44.376Z,66.30
2022-11-10T05:11:32.124Z,66.02
2022-11-10T05:14:18.572Z,66.46
2022-11-10T05:17:04.925Z,66.95
2022-11-10T05:19:51.111Z,67.02
2022-11-10T05:22:37.361Z,67.13
2022-11-10T05:25:23.836Z,67.83
2022-11-10T05:28:12.688Z,67.62
2022-11-10T05:30:58.813Z,67.39
2022-11-10T05:33:45.220Z,66.31
2022-11-10T05:36:31.547Z,67.18
2022-11-10T05:39:17.872Z,67.32
2022-11-10T05:42:04.365Z,67.26
2022-11-10T05:44:52.224Z,67.18
2022-11-10T05:47:38.404Z,66.41
2022-11-10T05:50:25.489Z,67.16
2022-11-10T05:53:12.099Z,67.29
2022-11-10T05:55:58.529Z,67.56
2022-11-10T05:58:44.891Z,67.33
2022-11-10T06:01:32.464Z,66.95
2022-11-10T06:04:18.635Z,67.29
2022-11-10T06:07:05.123Z,67.69
2022-11-10T06:09:51.805Z,67.95
2022-11-10T06:12:42.161Z,67.53
2022-11-10T06:15:29.403Z,68.42
2022-11-10T06:18:19.475Z,68.94
2022-11-10T06:21:06.306Z,68.49
2022-11-10T06:23:52.674Z,68.05
2022-11-10T06:26:46.647Z,68.71
2022-11-10T06:29:33.617Z,68.01
2022-11-10T06:32:19.942Z,68.99
2022-11-10T06:35:08.084Z,68.47
2022-11-10T06:37:59.020Z,68.55
2022-11-10T06:40:45.678Z,67.96
2022-11-10T06:43:32.347Z,68.56
2022-11-10T06:46:18.616Z,68.87
2022-11-10T06:49:05.112Z,68.05
2022-11-10T06:51:53.478Z,68.70
2022-11-10T06:54:39.778Z,69.12
2022-11-10T06:57:26.001Z,68.55
2022-11-10T07:00:13.744Z,68.51
2022-11-10T07:03:05.540Z,68.71
2022-11-10T07:05:51.935Z,68.68
2022-11-10T07:08:39.551Z,68.59
2022-11-10T07:11:26.110Z,69.09
2022-11-10T07:14:12.490Z,68.37
2022-11-10T07:16:58.757Z,67.82
2022-11-10T07:19:45.066Z,68.05
2022-11-10T07:22:31.297Z,68.55
2022-11-10T07:25:21.260Z,68.31
2022-11-10T07:28:10.434Z,68.56
2022-11-10T07:30:57.281Z,67.62
2022-11-10T07:33:44.091Z,67.21
2022-11-10T07:36:30.485Z,67.59
2022-11-10T07:39:16.771Z,67.49
2022-11-10T07:42:04.645Z,67.47
2022-11-10T07:44:51.063Z,67.01
2022-11-10T07:47:37.352Z,67.02
2022-11-10T07:50:23.655Z,67.73
2022-11-10T07:53:12.112Z,68.37
2022-11-10T07:55:59.448Z,67.12
2022-11-10T07:58:48.050Z,67.45
2022-11-10T08:01:34.630Z,67.39
2022-11-10T08:04:21.385Z,68.19
2022-11-10T08:07:07.825Z,68.37
2022-11-10T08:09:54.513Z,67.61
2022-11-10T08:12:40.763Z,69.39
2022-11-10T08:15:29.907Z,67.56
2022-11-10T08:18:19.652Z,67.32
2022-11-10T08:21:06.590Z,67.42
2022-11-10T08:23:53.120Z,67.32
2022-11-10T08:26:39.593Z,66.90
2022-11-10T08:29:25.781Z,67.23
2022-11-10T08:32:13.364Z,67.09
2022-11-10T08:34:59.701Z,67.31
2022-11-10T08:37:45.925Z,66.66
2022-11-10T08:40:32.144Z,66.99
2022-11-10T08:43:19.748Z,65.94
2022-11-10T08:46:06.575Z,66.34
2022-11-10T08:48:54.251Z,65.98
2022-11-10T08:51:40.640Z,66.86
2022-11-10T08:54:27.043Z,66.50
2022-11-10T08:57:13.387Z,66.32
2022-11-10T08:59:59.663Z,65.16
2022-11-10T09:02:45.980Z,65.99
2022-11-10T09:05:33.867Z,66.13
2022-11-10T09:08:20.614Z,64.39
2022-11-10T09:11:07.464Z,63.88
2022-11-10T09:13:53.895Z,64.05
2022-11-10T09:16:40.248Z,64.28
2022-11-10T09:19:26.500Z,63.49
2022-11-10T09:22:14.564Z,63.44
2022-11-10T09:25:00.872Z,63.40
2022-11-10T09:27:47.440Z,63.75
2022-11-10T09:30:34.023Z,63.38
2022-11-10T09:33:20.877Z,62.65
2022-11-10T09:36:08.454Z,62.75
2022-11-10T09:38:55.848Z,61.61
2022-11-10T09:41:43.892Z,59.89
2022-11-10T09:44:37.012Z,60.64
2022-11-10T09:47:55.725Z,61.41
2022-11-10T09:50:40.990Z,60.92
2022-11-10T09:53:33.493Z,59.11
2022-11-10T09:56:27.058Z,59.27
2022-11-10T09:59:19.942Z,59.45
2022-11-10T10:02:16.874Z,59.85
2022-11-10T10:05:21.452Z,60.50
2022-11-10T10:08:10.279Z,59.61
2022-11-10T10:11:09.062Z,60.16
2022-11-10T10:14:18.900Z,59.90
2022-11-10T10:17:15.408Z,60.03
2022-11-10T10:20:13.393Z,60.74
2022-11-10T10:23:11.639Z,61.06
2022-11-10T10:25:58.331Z,60.86
2022-11-10T10:28:46.833Z,59.41
2022-11-10T10:31:36.708Z,60.31
2022-11-10T10:34:27.873Z,59.30
2022-11-10T10:37:26.126Z,59.13
2022-11-10T10:40:16.513Z,59.14
2022-11-10T10:43:04.451Z,58.07
2022-11-10T10:46:06.596Z,57.77
2022-11-10T10:49:27.448Z,57.88
2022-11-10T10:52:16.744Z,58.49
2022-11-10T10:55:07.954Z,58.85
2022-11-10T10:58:00.411Z,60.15
2022-11-10T11:00:48.568Z,60.46
2022-11-10T11:03:41.870Z,59.93
2022-11-10T11:06:31.564Z,59.64
2022-11-10T11:09:20.887Z,58.47
2022-11-10T11:12:09.703Z,58.84
2022-11-10T11:15:13.054Z,58.43
2022-11-10T11:18:01.224Z,58.10
2022-11-10T11:20:55.546Z,57.79
2022-11-10T11:24:00.707Z,57.84
2022-11-10T11:26:56.746Z,56.58
2022-11-10T11:29:59.475Z,56.07
2022-11-10T11:33:07.385Z,55.69
2022-11-10T11:35:59.299Z,54.79
2022-11-10T11:38:57.322Z,55.53
2022-11-10T11:41:49.614Z,54.61
2022-11-10T11:44:56.387Z,55.54
2022-11-10T11:48:00.700Z,55.84
2022-11-10T11:50:55.266Z,56.46
2022-11-10T11:53:53.302Z,56.77
2022-11-10T11:56:43.864Z,56.76
2022-11-10T11:59:56.665Z,56.90
2022-11-10T12:03:18.148Z,58.28
2022-11-10T12:06:24.101Z,56.06
2022-11-10T12:09:19.152Z,57.42
2022-11-10T12:12:23.443Z,57.58
2022-11-10T12:15:21.119Z,58.44
2022-11-10T12:18:20.323Z,57.96
2022-11-10T12:21:22.985Z,57.69
2022-11-10T12:24:31.226Z,57.70
2022-11-10T12:27:21.924Z,57.51
2022-11-10T12:30:13.253Z,57.50
2022-11-10T12:33:05.277Z,55.95
2022-11-10T12:35:55.109Z,56.11
2022-11-10T12:38:59.605Z,56.24
2022-11-10T12:41:50.662Z,55.60
2022-11-10T12:44:46.524Z,55.53
2022-11-10T12:47:39.828Z,56.51
2022-11-10T12:50:35.645Z,57.05
2022-11-10T12:53:24.645Z,57.60
2022-11-10T12:56:22.113Z,57.37
2022-11-10T12:59:23.690Z,56.96
2022-11-10T13:02:25.870Z,56.77
2022-11-10T13:05:24.252Z,57.49
2022-11-10T13:08:30.435Z,56.83
2022-11-10T13:11:28.967Z,57.01
2022-11-10T13:14:24.866Z,56.03
2022-11-10T13:17:13.039Z,56.64
2022-11-10T13:20:27.479Z,56.08
2022-11-10T13:23:25.633Z,55.49
2022-11-10T13:26:13.001Z,56.93
2022-11-10T13:29:02.749Z,56.45
2022-11-10T13:31:55.115Z,57.15
2022-11-10T13:34:42.563Z,56.55
2022-11-10T13:37:52.974Z,55.94
2022-11-10T13:40:40.971Z,56.93
2022-11-10T13:43:28.677Z,57.16
2022-11-10T13:46:15.362Z,56.72
2022-11-10T13:49:42.805Z,57.14
2022-11-10T13:52:42.650Z,58.33
2022-11-10T13:55:47.895Z,57.60
2022-11-10T13:58:36.619Z,56.79
2022-11-10T14:01:30.303Z,56.33
2022-11-10T14:04:35.480Z,57.42
2022-11-10T14:07:22.497Z,56.80
2022-11-10T14:10:14.931Z,56.98
2022-11-10T14:13:07.919Z,55.94
2022-11-10T14:15:55.374Z,56.49
2022-11-10T14:18:46.484Z,56.67
2022-11-10T14:21:42.435Z,57.29
2022-11-10T14:24:31.544Z,56.59
2022-11-10T14:27:24.923Z,57.75
2022-11-10T14:30:24.619Z,58.08
2022-11-10T14:33:14.983Z,56.70
2022-11-10T14:36:03.167Z,56.84
2022-11-10T14:38:50.512Z,57.41
2022-11-10T14:41:37.123Z,58.13
2022-11-10T14:44:25.503Z,57.61
2022-11-10T14:47:25.095Z,58.28
2022-11-10T14:50:20.080Z,57.54
2022-11-10T14:53:13.949Z,57.39
2022-11-10T14:56:01.092Z,57.33
2022-11-10T14:58:49.960Z,58.39
2022-11-10T15:01:38.963Z,57.20
2022-11-10T15:04:30.602Z,58.61
2022-11-10T15:07:17.541Z,57.94
2022-11-10T15:10:19.777Z,58.05
2022-11-10T15:13:18.231Z,57.47
2022-11-10T15:16:26.492Z,57.53
2022-11-10T15:19:24.246Z,57.97
2022-11-10T15:22:19.340Z,58.82
2022-11-10T15:25:15.352Z,58.72
2022-11-10T15:28:03.688Z,58.53
2022-11-10T15:30:51.876Z,59.26
2022-11-10T15:33:40.325Z,58.73
2022-11-10T15:36:33.191Z,58.16
2022-11-10T15:39:27.149Z,58.19
2022-11-10T15:42:16.708Z,58.61
2022-11-10T15:45:02.955Z,58.58
2022-11-10T15:47:49.378Z,59.18
2022-11-10T15:50:35.876Z,59.18
2022-11-10T15:53:27.797Z,59.66
2022-11-10T15:56:17.801Z,58.79
2022-11-10T15:59:04.551Z,59.22
2022-11-10T16:01:51.530Z,59.36
2022-11-10T16:04:38.040Z,59.40
2022-11-10T16:07:24.591Z,59.59
2022-11-10T16:10:11.302Z,59.90
2022-11-10T16:12:59.381Z,60.20
2022-11-10T16:15:46.330Z,60.17
2022-11-10T16:18:33.141Z,61.50
2022-11-10T16:21:22.673Z,60.58
2022-11-10T16:24:09.224Z,60.24
2022-11-10T16:26:55.689Z,60.54
2022-11-10T16:29:44.267Z,60.71
2022-11-10T16:32:30.459Z,60.75
2022-11-10T16:35:17.086Z,60.56
2022-11-10T16:38:03.666Z,60.94
2022-11-10T16:40:55.720Z,60.72
2022-11-10T16:43:42.431Z,60.81
2022-11-10T16:46:31.398Z,62.01
2022-11-10T16:49:25.856Z,61.17
2022-11-10T16:52:15.734Z,61.50
2022-11-10T16:55:02.076Z,61.41
2022-11-10T16:57:48.799Z,61.55
2022-11-10T17:00:35.087Z,61.02
2022-11-10T17:03:32.575Z,60.92
2022-11-10T17:06:21.496Z,61.60
2022-11-10T17:09:13.299Z,61.14
2022-11-10T17:11:59.759Z,61.25
2022-11-10T17:14:46.156Z,61.74
2022-11-10T17:17:32.672Z,61.33
2022-11-10T17:20:24.521Z,61.70
2022-11-10T17:23:15.104Z,60.67
2022-11-10T17:26:02.139Z,61.24
2022-11-10T17:28:48.959Z,60.96
2022-11-10T17:31:35.354Z,61.07
2022-11-10T17:34:21.513Z,60.61
2022-11-10T17:37:12.412Z,60.96
2022-11-10T17:39:59.407Z,60.64
2022-11-10T17:42:45.792Z,60.45
2022-11-10T17:45:32.106Z,59.58
2022-11-10T17:48:18.568Z,60.50
2022-11-10T17:51:05.832Z,60.15
2022-11-10T17:53:53.621Z,59.57
2022-11-10T17:56:39.851Z,60.14
2022-11-10T17:59:26.167Z,59.46
2022-11-10T18:02:12.946Z,59.76
2022-11-10T18:04:59.335Z,60.06
2022-11-10T18:07:46.093Z,60.26
2022-11-10T18:10:33.818Z,59.88
2022-11-10T18:13:20.745Z,60.35
2022-11-10T18:16:11.668Z,59.28
2022-11-10T18:18:58.711Z,59.14
2022-11-10T18:21:45.277Z,60.39
2022-11-10T18:24:31.656Z,59.66
2022-11-10T18:27:19.543Z,59.01
2022-11-10T18:30:06.971Z,59.14
2022-11-10T18:32:53.340Z,59.47
2022-11-10T18:35:41.098Z,59.73
2022-11-10T18:38:27.551Z,59.68
2022-11-10T18:41:31.677Z,59.64
2022-11-10T18:44:20.813Z,58.67
2022-11-10T18:47:08.599Z,59.80
2022-11-10T18:49:55.128Z,59.69
2022-11-10T18:52:41.517Z,60.00
2022-11-10T18:55:27.873Z,59.67
2022-11-10T18:58:14.315Z,59.88
2022-11-10T19:01:06.086Z,59.60
2022-11-10T19:03:53.180Z,59.09
2022-11-10T19:06:40.164Z,58.97
2022-11-10T19:09:26.673Z,59.41
2022-11-10T19:12:13.958Z,59.52
2022-11-10T19:15:00.392Z,59.81
2022-11-10T19:17:48.081Z,60.18
2022-11-10T19:20:36.220Z,60.01
2022-11-10T19:23:22.872Z,60.30
2022-11-10T19:26:11.665Z,59.60
2022-11-10T19:28:58.465Z,60.05
2022-11-10T19:31:45.554Z,60.33
2022-11-10T19:34:33.337Z,60.07
2022-11-10T19:37:19.682Z,60.04
2022-11-10T19:40:06.932Z,59.43
2022-11-10T19:42:53.174Z,60.90
2022-11-10T19:45:39.404Z,60.74
2022-11-10T19:48:25.601Z,60.80
2022-11-10T19:51:15.649Z,61.24
2022-11-10T19:54:04.946Z,60.83
2022-11-10T19:56:51.122Z,60.77
2022-11-10T19:59:37.418Z,60.32
2022-11-10T20:02:23.768Z,60.40
2022-11-10T20:05:13.296Z,60.99
2022-11-10T20:08:12.752Z,60.47
2022-11-10T20:11:03.789Z,60.36
2022-11-10T20:13:54.373Z,60.48
2022-11-10T20:16:41.773Z,61.32
2022-11-10T20:19:28.416Z,60.73
2022-11-10T20:22:14.727Z,61.11
2022-11-10T20:25:02.442Z,60.44
2022-11-10T20:27:48.731Z,60.42
2022-11-10T20:30:35.698Z,60.71
2022-11-10T20:33:22.461Z,61.01
2022-11-10T20:36:16.085Z,60.67
2022-11-10T20:39:06.593Z,60.81
2022-11-10T20:41:54.432Z,61.60
2022-11-10T20:44:41.385Z,61.11
2022-11-10T20:47:29.795Z,61.06
2022-11-10T20:50:21.709Z,61.15
2022-11-10T20:53:10.287Z,61.52
2022-11-10T20:55:59.454Z,61.07
2022-11-10T20:58:48.949Z,61.89
2022-11-10T21:01:37.496Z,61.66
2022-11-10T21:04:24.092Z,62.52
2022-11-10T21:07:10.353Z,63.02
2022-11-10T21:09:56.824Z,63.61
2022-11-10T21:12:52.134Z,62.94
2022-11-10T21:15:41.260Z,63.50
2022-11-10T21:18:29.500Z,63.19
2022-11-10T21:21:21.727Z,63.71
2022-11-10T21:24:09.361Z,62.87
2022-11-10T21:26:56.649Z,64.14
2022-11-10T21:29:43.321Z,63.66
2022-11-10T21:32:31.310Z,64.03
2022-11-10T21:35:18.000Z,63.79
2022-11-10T21:38:04.682Z,64.20
2022-11-10T21:40:50.911Z,64.21
2022-11-10T21:43:38.667Z,64.16
2022-11-10T21:46:25.215Z,64.11
2022-11-10T21:49:13.188Z,64.85
2022-11-10T21:51:59.610Z,65.38
2022-11-10T21:54:45.896Z,65.51
2022-11-10T21:57:32.171Z,65.44
2022-11-10T22:00:18.696Z,66.00
2022-11-10T22:03:05.698Z,65.63
2022-11-10T22:05:53.611Z,66.16
2022-11-10T22:08:41.492Z,66.43
2022-11-10T22:11:50.451Z,66.17
2022-11-10T22:14:54.539Z,66.15
2022-11-10T22:17:58.446Z,66.32
2022-11-10T22:20:44.910Z,66.13
2022-11-10T22:23:50.346Z,65.96
2022-11-10T22:26:36.820Z,65.83
2022-11-10T22:29:26.137Z,66.48
2022-11-10T22:32:14.939Z,65.82
2022-11-10T22:35:01.252Z,66.88
2022-11-10T22:37:47.397Z,66.90
2022-11-10T22:40:54.338Z,66.33
2022-11-10T22:43:58.330Z,67.52
2022-11-10T22:46:47.992Z,66.79
2022-11-10T22:49:34.500Z,66.84
2022-11-10T22:52:20.667Z,67.41
2022-11-10T22:55:07.603Z,66.30
2022-11-10T22:57:55.358Z,66.70
2022-11-10T23:00:41.392Z,67.27
2022-11-10T23:03:27.734Z,67.70
2022-11-10T23:06:14.111Z,68.28
2022-11-10T23:09:01.147Z,67.94
2022-11-10T23:11:47.487Z,67.23
2022-11-10T23:14:35.160Z,67.55
2022-11-10T23:17:21.330Z,68.05
2022-11-10T23:20:08.505Z,68.79
2022-11-10T23:22:55.949Z,68.94
2022-11-10T23:25:42.301Z,67.57
2022-11-10T23:28:29.203Z,69.27
2022-11-10T23:31:20.523Z,69.11
2022-11-10T23:34:07.372Z,69.42
2022-11-10T23:36:54.000Z,69.23
2022-11-10T23:39:40.244Z,69.30
2022-11-10T23:42:27.788Z,68.75
2022-11-10T23:45:15.583Z,68.49
2022-11-10T23:48:06.909Z,70.04
2022-11-10T23:50:53.859Z,70.09
2022-11-10T23:53:40.437Z,69.14
2022-11-10T23:56:26.596Z,69.65
2022-11-10T23:59:12.761Z,70.09
